Latest Weather Observations for Fingal

IDT60801

Issued at 12:31 pm EDT Saturday 7 March 2015 (issued every 30 minutes, with the page automatically refreshed every 10 minutes)

About weather observations | Map of weather stations | Latest weather observations for TAS | Other Formats
Station Details ID: 092012 Name: FINGAL (LEGGE STREET) Lat: -41.64 Lon: 147.97 Height: 237.0 m
Data from the previous 72 hours. | See also: Recent months at Fingal
Date/Time
EDT
Temp
°C
App
Temp
°C
Dew
Point
Rel
Hum
%
Delta-T
°C
Wind Press
QNH
hPa
Press
MSL
hPa
Rain
since 9 am
mm
Dir
 
Spd
km/h
Gust
km/h
Spd
kts
Gust
kts
07/12:30pm 19.8 18.6 9.4 51 5.6 WNW 6 9 3 5 - - 0.0
07/12:00pm 19.0 17.3 9.8 55 4.9 SSW 9 13 5 7 - - 0.0
07/11:30am 18.9 17.0 10.5 58 4.6 SE 11 17 6 9 - - 0.0
07/11:00am 17.3 16.3 11.1 67 3.4 E 7 15 4 8 - - 0.0
07/10:30am 14.7 14.5 9.1 69 2.9 CALM 0 0 0 0 - - 0.0
07/10:00am 13.0 11.9 8.3 73 2.4 SSE 4 7 2 4 - - 0.0
07/09:30am 11.4 9.9 8.3 81 1.5 W 6 13 3 7 - - 0.0
07/09:00am 9.9 8.1 7.2 83 1.3 WSW 6 9 3 5 - - 0.0
07/08:30am 8.9 8.2 6.9 87 0.9 CALM 0 0 0 0 - - 0.0
07/08:00am 8.3 6.7 6.3 87 0.9 SE 4 9 2 5 - - 0.0
07/07:30am 7.4 5.6 5.5 88 0.9 WSW 4 7 2 4 - - 0.0
07/07:00am 6.7 4.8 4.9 88 0.8 SSE 4 7 2 4 - - 0.0
07/06:30am 6.3 5.1 4.5 88 0.8 CALM 0 6 0 3 - - 0.0
07/05:30am 6.1 4.4 4.1 87 0.9 NNW 2 7 1 4 - - 0.0
07/05:00am 5.8 4.5 4.0 88 0.8 CALM 0 2 0 1 - - 0.0
07/04:30am 5.5 2.8 3.5 87 0.8 ESE 7 9 4 5 - - 0.0
07/04:00am 5.5 3.0 3.5 87 0.8 ENE 6 11 3 6 - - 0.0
07/03:30am 5.9 4.5 3.7 86 0.9 CALM 0 0 0 0 - - 0.0
07/03:00am 5.6 4.2 3.4 86 0.9 CALM 0 0 0 0 - - 0.0
07/02:30am 5.4 2.6 3.3 86 0.9 SE 7 9 4 5 - - 0.0
07/02:00am 5.0 2.7 2.7 85 1.0 SSE 4 6 2 3 - - 0.0
07/01:30am 5.2 2.5 2.7 84 1.0 ENE 6 7 3 4 - - 0.0
07/01:00am 4.9 2.8 1.9 81 1.2 SSE 2 7 1 4 - - 0.0
07/12:30am 5.2 3.6 2.2 81 1.2 CALM 0 0 0 0 - - 0.0
07/12:00am 5.8 3.4 2.4 79 1.4 SE 4 9 2 5 - - 0.0
 
Date/Time
EDT
Temp
°C
App
Temp
°C
Dew
Point
Rel
Hum
%
Delta-T
°C
Wind Press
QNH
hPa
Press
MSL
hPa
Rain
since 9 am
mm
Dir
 
Spd
km/h
Gust
km/h
Spd
kts
Gust
kts
06/11:30pm 6.3 4.7 2.6 77 1.5 CALM 0 0 0 0 - - 0.0
06/11:00pm 6.9 5.3 2.6 74 1.8 CALM 0 0 0 0 - - 0.0
06/10:30pm 7.5 6.0 3.0 73 1.9 CALM 0 0 0 0 - - 0.0
06/10:00pm 8.4 6.2 3.3 70 2.2 E 4 6 2 3 - - 0.0
06/09:30pm 8.8 6.5 3.0 67 2.5 NE 4 9 2 5 - - 0.0
06/09:00pm 10.1 7.4 3.6 64 2.9 NNE 7 11 4 6 - - 0.0
06/08:30pm 11.6 7.6 2.9 55 3.8 N 13 22 7 12 - - 0.0
06/08:00pm 13.4 9.7 2.6 48 4.8 SSE 11 17 6 9 - - 0.0
06/07:30pm 15.6 11.8 -0.6 33 6.9 W 9 13 5 7 - - 0.0
06/07:00pm 16.8 13.0 -0.4 31 7.4 WSW 9 17 5 9 - - 0.0
06/06:30pm 17.1 12.9 -0.6 30 7.6 WSW 11 20 6 11 - - 0.0
06/06:00pm 17.5 12.6 -0.2 30 7.7 WSW 15 26 8 14 - - 0.0
06/05:30pm 17.4 11.8 0.1 31 7.6 WSW 19 26 10 14 - - 0.0
06/05:00pm 17.5 11.8 -0.7 29 7.9 SW 19 30 10 16 - - 0.0
06/04:30pm 17.9 12.1 0.1 30 7.8 WSW 20 39 11 21 - - 0.0
06/04:00pm 17.8 12.0 0.0 30 7.8 WSW 20 35 11 19 - - 0.0
06/03:30pm 17.8 12.2 0.9 32 7.6 WSW 20 37 11 20 - - 0.0
06/03:00pm 16.5 10.2 -1.1 30 7.5 SSW 22 39 12 21 - - 0.0
06/02:30pm 16.8 11.0 -1.3 29 7.7 SSW 19 48 10 26 - - 0.0
06/02:00pm 16.5 10.9 -0.2 32 7.2 SW 19 37 10 20 - - 0.0
06/01:40pm 16.1 9.3 -1.5 30 7.4 SW 24 46 13 25 - - 0.0
06/01:30pm 16.2 9.3 -0.1 33 7.0 SW 26 41 14 22 - - 0.0
06/01:00pm 15.8 8.1 0.0 34 6.8 SW 30 52 16 28 - - 0.0
06/12:34pm 15.2 8.0 0.6 37 6.3 SSW 28 48 15 26 - - 0.0
06/12:30pm 15.8 8.9 0.4 35 6.7 SW 26 46 14 25 - - 0.0
06/12:12pm 15.4 8.5 0.0 35 6.6 SW 26 46 14 25 - - 0.0
06/12:00pm 15.2 8.7 0.2 36 6.5 SW 24 39 13 21 - - 0.0
06/11:41am 15.0 8.0 -0.7 34 6.6 WSW 26 46 14 25 - - 0.0
06/11:30am 15.2 9.4 0.2 36 6.5 SSW 20 37 11 20 - - 0.0
06/11:00am 14.4 7.1 -0.1 37 6.2 SW 28 50 15 27 - - 0.0
06/10:30am 14.6 8.6 0.8 39 6.0 SW 22 39 12 21 - - 0.0
06/10:00am 14.3 7.9 0.9 40 5.8 SW 24 43 13 23 - - 0.0
06/09:30am 13.8 6.3 1.5 43 5.4 WSW 30 50 16 27 - - 0.0
06/09:00am 13.7 5.9 2.0 45 5.2 SW 32 61 17 33 - - 0.2
06/08:30am 13.8 6.6 3.0 48 4.9 SW 30 52 16 28 - - 0.2
06/08:02am 14.1 7.2 2.7 46 5.1 SW 28 46 15 25 - - 0.2
06/08:00am 14.0 7.5 2.9 47 5.0 SW 26 44 14 24 - - 0.2
06/07:30am 14.3 6.7 2.9 46 5.2 SSW 32 57 17 31 - - 0.2
06/07:09am 14.6 8.0 4.3 50 4.8 SW 28 48 15 26 - - 0.2
06/07:00am 14.8 9.1 5.1 52 4.6 SSW 24 48 13 26 - - 0.2
06/06:30am 15.7 9.6 5.0 49 5.1 SSW 26 50 14 27 - - 0.2
06/06:00am 15.3 11.4 5.2 51 4.8 SSW 15 28 8 15 - - 0.2
06/05:30am 14.9 10.6 5.4 53 4.6 SW 17 32 9 17 - - 0.2
06/05:00am 14.8 10.0 5.6 54 4.4 SW 20 43 11 23 - - 0.2
06/04:30am 15.1 10.2 5.3 52 4.7 WSW 20 43 11 23 - - 0.2
06/04:00am 14.4 10.0 5.0 53 4.5 WNW 17 35 9 19 - - 0.2
06/03:31am 14.2 7.8 5.0 54 4.4 W 28 46 15 25 - - 0.2
06/03:30am 14.2 8.1 4.8 53 4.4 W 26 46 14 25 - - 0.2
06/03:00am 13.9 8.9 4.8 54 4.3 W 20 50 11 27 - - 0.2
06/02:30am 14.3 8.1 4.3 51 4.7 W 26 52 14 28 - - 0.2
06/02:00am 14.1 8.6 3.8 50 4.7 W 22 44 12 24 - - 0.2
06/01:43am 13.9 7.2 3.9 51 4.6 W 28 48 15 26 - - 0.2
06/01:30am 13.2 8.6 3.8 53 4.3 WNW 17 28 9 15 - - 0.2
06/01:00am 12.9 8.8 4.1 55 4.0 WNW 15 24 8 13 - - 0.2
06/12:30am 12.9 8.3 3.8 54 4.2 WNW 17 32 9 17 - - 0.2
06/12:00am 12.4 8.2 3.9 56 3.9 WNW 15 24 8 13 - - 0.2
 
Date/Time
EDT
Temp
°C
App
Temp
°C
Dew
Point
Rel
Hum
%
Delta-T
°C
Wind Press
QNH
hPa
Press
MSL
hPa
Rain
since 9 am
mm
Dir
 
Spd
km/h
Gust
km/h
Spd
kts
Gust
kts
05/11:30pm 12.3 7.7 3.5 55 4.0 NW 17 26 9 14 - - 0.2
05/11:00pm 12.1 8.1 3.1 54 4.0 WNW 13 22 7 12 - - 0.2
05/10:30pm 12.0 8.0 2.7 53 4.1 NW 13 20 7 11 - - 0.2
05/10:00pm 12.0 7.6 2.7 53 4.1 NW 15 20 8 11 - - 0.2
05/09:30pm 12.0 7.8 1.9 50 4.4 NW 13 22 7 12 - - 0.2
05/09:00pm 11.7 8.6 1.6 50 4.3 WNW 7 11 4 6 - - 0.2
05/08:30pm 11.9 7.6 1.0 47 4.6 WNW 13 20 7 11 - - 0.2
05/08:00pm 12.2 7.0 0.0 43 5.1 NW 17 32 9 17 - - 0.2
05/07:30pm 12.8 6.9 -0.8 39 5.6 W 20 37 11 20 - - 0.2
05/07:00pm 13.7 8.1 -0.3 38 5.9 WNW 19 32 10 17 - - 0.2
05/06:30pm 14.2 8.2 -1.4 34 6.4 W 20 33 11 18 - - 0.2
05/06:00pm 14.4 8.1 -0.8 35 6.4 WNW 22 37 12 20 - - 0.2
05/05:30pm 15.2 7.8 -0.5 34 6.7 W 28 43 15 23 - - 0.2
05/05:08pm 15.0 7.4 -2.0 31 7.0 WNW 28 48 15 26 - - 0.2
05/05:00pm 16.0 8.6 -0.7 32 7.1 WNW 28 43 15 23 - - 0.2
05/04:30pm 16.1 9.7 -1.5 30 7.4 W 22 44 12 24 - - 0.2
05/04:00pm 16.2 9.3 -2.3 28 7.6 W 24 44 13 24 - - 0.2
05/03:30pm 15.9 9.3 -3.1 27 7.7 W 22 33 12 18 - - 0.2
05/03:00pm 14.9 9.0 -2.1 31 6.9 WSW 19 32 10 17 - - 0.2
05/02:30pm 15.3 9.2 -2.2 30 7.2 W 20 37 11 20 - - 0.2
05/02:00pm 15.0 8.7 -1.1 33 6.7 W 22 39 12 21 - - 0.2
05/01:30pm 14.0 8.0 -1.6 34 6.4 WSW 20 30 11 16 - - 0.0
05/01:00pm 14.1 6.6 -1.5 34 6.4 SW 28 48 15 26 - - 0.0
05/12:30pm 13.6 6.1 -1.6 35 6.2 SW 28 50 15 27 - - 0.0
05/12:12pm 12.9 5.3 -2.2 35 6.0 WSW 28 48 15 26 - - 0.0
05/12:00pm 12.8 6.1 -0.8 39 5.6 SW 24 37 13 20 - - 0.0
05/11:30am 11.7 5.0 -1.4 40 5.3 WSW 24 43 13 23 - - 0.0
05/11:00am 11.0 4.2 -1.7 41 5.0 SW 24 50 13 27 - - 0.0
05/10:30am 10.6 3.0 -1.8 42 4.9 SW 28 50 15 27 - - 0.0
05/10:09am 10.5 3.1 -0.9 45 4.6 SW 28 46 15 25 - - 0.0
05/10:00am 10.6 4.1 0.1 48 4.3 SW 24 37 13 20 - - 0.0
05/09:50am 10.1 2.7 -1.0 46 4.4 SW 28 46 15 25 - - 0.0
05/09:30am 9.8 4.1 0.7 53 3.8 SW 20 35 11 19 - - 0.0
05/09:00am 9.4 3.0 0.8 55 3.5 SW 24 43 13 23 - - 1.2
05/08:52am 9.3 2.1 1.0 56 3.4 SW 28 46 15 25 - - 1.2
05/08:30am 9.0 2.2 1.0 57 3.3 SW 26 54 14 29 - - 1.2
05/08:00am 9.2 3.6 0.9 56 3.4 SW 20 32 11 17 - - 1.2
05/07:30am 8.9 1.7 0.9 57 3.3 SW 28 41 15 22 - - 1.2
05/07:00am 8.7 3.3 1.1 59 3.1 SW 19 37 10 20 - - 1.2
05/06:30am 9.0 3.5 1.7 60 3.1 SW 20 33 11 18 - - 1.2
05/06:00am 9.1 3.2 2.0 61 3.0 SW 22 39 12 21 - - 1.2
05/05:30am 8.8 3.6 2.6 65 2.7 SW 19 28 10 15 - - 1.2
05/05:05am 9.2 2.4 3.0 65 2.7 SW 28 52 15 28 - - 1.2
05/05:00am 9.3 3.4 3.9 69 2.4 SW 24 50 13 27 - - 1.0
05/04:30am 10.6 6.0 5.4 70 2.4 SW 19 32 10 17 - - 0.8
05/04:00am 10.0 4.9 5.8 75 2.0 SW 22 43 12 23 - - 0.6
05/03:41am 11.9 6.8 4.2 59 3.5 WSW 20 43 11 23 - - 0.0
05/03:30am 12.6 8.6 4.8 59 3.6 WSW 15 24 8 13 - - 0.0
05/03:00am 12.8 8.7 4.5 57 3.8 W 15 26 8 14 - - 0.0
05/02:30am 13.0 9.0 4.9 58 3.8 W 15 24 8 13 - - 0.0
05/02:00am 13.3 10.2 5.7 60 3.6 W 11 19 6 10 - - 0.0
05/01:30am 13.6 8.9 6.2 61 3.6 NW 20 32 11 17 - - 0.0
05/01:00am 14.3 10.2 6.4 59 3.9 WNW 17 32 9 17 - - 0.0
05/12:30am 14.5 11.6 6.3 58 4.0 W 11 20 6 11 - - 0.0
05/12:00am 14.2 12.1 6.8 61 3.6 SSW 7 11 4 6 - - 0.0
 
Date/Time
EDT
Temp
°C
App
Temp
°C
Dew
Point
Rel
Hum
%
Delta-T
°C
Wind Press
QNH
hPa
Press
MSL
hPa
Rain
since 9 am
mm
Dir
 
Spd
km/h
Gust
km/h
Spd
kts
Gust
kts
04/11:30pm 15.2 11.2 6.7 57 4.2 WNW 17 28 9 15 - - 0.0
04/11:00pm 14.7 13.0 7.7 63 3.5 W 6 9 3 5 - - 0.0
04/10:30pm 15.1 12.1 7.9 62 3.6 WSW 13 24 7 13 - - 0.0
04/10:00pm 16.4 11.5 7.1 54 4.7 WNW 22 39 12 21 - - 0.0
04/09:30pm 16.6 12.7 5.3 47 5.5 WNW 15 24 8 13 - - 0.0
04/09:02pm 17.3 12.9 4.9 44 6.0 W 17 50 9 27 - - 0.0
04/09:00pm 17.0 13.4 5.0 45 5.8 WNW 13 22 7 12 - - 0.0
04/08:30pm 17.5 13.2 7.0 50 5.3 NW 19 30 10 16 - - 0.0
04/08:00pm 18.2 13.6 6.7 47 5.8 WNW 20 33 11 18 - - 0.0
04/07:30pm 18.7 13.2 5.9 43 6.4 W 24 39 13 21 - - 0.0
04/07:00pm 18.7 13.7 6.5 45 6.1 NW 22 39 12 21 - - 0.0
04/06:30pm 18.8 14.5 6.9 46 6.0 WNW 19 30 10 16 - - 0.0
04/06:00pm 18.9 15.7 7.0 46 6.1 NW 13 20 7 11 - - 0.0
04/05:30pm 21.0 16.4 6.5 39 7.4 W 20 37 11 20 - - 0.0
04/05:00pm 21.7 17.6 6.4 37 7.8 W 17 32 9 17 - - 0.0
04/04:30pm 22.2 17.9 8.0 40 7.5 WNW 20 35 11 19 - - 0.0
04/04:00pm 22.2 18.0 8.3 41 7.4 WNW 20 30 11 16 - - 0.0
04/03:30pm 22.5 18.4 7.9 39 7.7 NW 19 26 10 14 - - 0.0
04/03:00pm 22.3 18.2 7.7 39 7.7 WNW 19 32 10 17 - - 0.0
04/02:30pm 21.3 15.5 6.4 38 7.6 W 26 46 14 25 - - 0.0
04/02:00pm 20.9 14.7 6.1 38 7.5 WSW 28 48 15 26 - - 0.0
04/01:49pm 21.2 16.0 5.5 36 7.9 W 22 46 12 25 - - 0.0
04/01:30pm 20.9 15.8 7.5 42 7.0 WNW 24 39 13 21 - - 0.0
04/01:00pm 20.7 15.8 7.0 41 7.1 W 22 39 12 21 - - 0.0

Other Formats:

Comma delimited format used in spreadsheet applications
http://www.bom.gov.au/fwo/IDT60801/IDT60801.95974.axf

JavaScript Object Notation format (JSON) in row-major order
http://www.bom.gov.au/fwo/IDT60801/IDT60801.95974.json